CheckWX is a tool to help pilots better visualize weather data.  It is not intended as a substitute for an official pre-flight weather briefing.

18:32:18 UTC

PTSA METAR
Kosrae Airport
Kosrae, Federated States of Micronesia
Current

15 hours ago

PTSA 140350Z 14008KT 10SM SCT018 BKN130 OVC300 28/25 A2974
Observed
Dec-14 @ 03:50 UTC
Wind
  • 140° at 8 KTS
Visibility
16,100 meters
Flight Rules
VFR
Cloud Levels
  • Scattered at 1,800' AGL
  • Broken at 13,000' AGL
  • Overcast at 30,000' AGL
Temperature
28°C / 82°F
Dewpoint
25°C / 77°F
Heat Index
32°C / 90°F
Humidity
84%
Altimeter
29.74" Hg
Pressure
1007.12 hPa
Previous

16 hours ago

PTSA 140250Z 14007KT 10SM SCT018 BKN130 OVC300 30/25 A2975
Observed
Dec-14 @ 02:50 UTC
Wind
  • 140° at 7 KTS
Visibility
16,100 meters
Flight Rules
VFR
Cloud Levels
  • Scattered at 1,800' AGL
  • Broken at 13,000' AGL
  • Overcast at 30,000' AGL
Temperature
30°C / 86°F
Dewpoint
25°C / 77°F
Heat Index
36°C / 97°F
Humidity
75%
Altimeter
29.75" Hg
Pressure
1007.42 hPa
Previous

17 hours ago

PTSA 140155Z 13010KT 10SM SCT017TCU BKN130 OVC300 30/25 A2980 RMK TCU SE-SW LAST
Observed
Dec-14 @ 01:55 UTC
Wind
  • 130° at 10 KTS
Visibility
16,100 meters
Flight Rules
VFR
Cloud Levels
  • Scattered at 1,700' AGL
  • Broken at 13,000' AGL
  • Overcast at 30,000' AGL
Temperature
30°C / 86°F
Dewpoint
25°C / 77°F
Heat Index
36°C / 97°F
Humidity
75%
Altimeter
29.8" Hg
Pressure
1009.12 hPa